Hub


Voltar

 INFORMAÇÕES METEOROLÓGICAS

METAR FOR PASO


ADDS - METARS form results

(0319 UTC 20 April 2019)
Data provider http://aviationweather.gov/metar/data/
 
METAR text: PASO 200253Z AUTO 22008KT 190V250 10SM BKN045 OVC055 04/M04 A2970 RMK AO2 SLP056 60001 T00441044 51001 TSNO
Conditions at: PASO (SELDOVIA , AK, US) observed 0253 UTC 20 April 2019
Temperature: 4.4°C (40°F)
Dewpoint: -4.4°C (24°F) [RH = 53%]
Pressure (altimeter): 29.70 inches Hg (1005.8 mb)
[Sea-level pressure: 1005.6 mb]
Winds: from the SW (220 degrees) at 9 MPH (8 knots; 4.1 m/s)
Visibility: 10 or more miles (16+ km)
Ceiling: 4500 feet AGL
Clouds: broken clouds at 4500 feet AGL
overcast cloud deck at 5500 feet AGL
Weather: automated observation with no human augmentation;
there may or may not be significant weather present at this time


 MAPA DO AEROPORTO


 INFORMAÇÕES DA PISTA

Pista 16 Tamanho da pista 1845 ft Largura da pista 60 ft
Elevação da pista 0 ft Ranhura da pista 0 ft Proa da pista 0
Pista 34 Tamanho da pista 1845 ft Largura da pista 60 ft
Elevação da pista 0 ft Ranhura da pista 0 ft Proa da pista 0

 FREQUÊNCIAS DO AEROPORTO


 AUXÍLIOS DE NAVEGAÇÃO PRÓXIMOS AO AEROPORTO